sensor_id;sensor_type;location;lat;lon;timestamp;temperature;humidity
68257;DHT22;55069;51.568;4.656;2023-01-06T00:00:26;10.72;89.38
68257;DHT22;55069;51.568;4.656;2023-01-06T00:02:52;10.75;89.19
68257;DHT22;55069;51.568;4.656;2023-01-06T00:05:17;10.73;89.18
68257;DHT22;55069;51.568;4.656;2023-01-06T00:07:43;10.73;89.06
68257;DHT22;55069;51.568;4.656;2023-01-06T00:10:10;10.71;89.21
68257;DHT22;55069;51.568;4.656;2023-01-06T00:12:36;10.73;89.10
68257;DHT22;55069;51.568;4.656;2023-01-06T00:15:02;10.72;89.29
68257;DHT22;55069;51.568;4.656;2023-01-06T00:17:28;10.75;88.93
68257;DHT22;55069;51.568;4.656;2023-01-06T00:19:53;10.75;88.81
68257;DHT22;55069;51.568;4.656;2023-01-06T00:22:19;10.76;88.82
68257;DHT22;55069;51.568;4.656;2023-01-06T00:24:44;10.77;88.66
68257;DHT22;55069;51.568;4.656;2023-01-06T00:27:10;10.76;88.67
68257;DHT22;55069;51.568;4.656;2023-01-06T00:29:35;10.76;88.73
68257;DHT22;55069;51.568;4.656;2023-01-06T00:32:01;10.73;88.65
68257;DHT22;55069;51.568;4.656;2023-01-06T00:34:28;10.69;88.74
68257;DHT22;55069;51.568;4.656;2023-01-06T00:36:55;10.73;88.45
68257;DHT22;55069;51.568;4.656;2023-01-06T00:39:20;10.75;88.23
68257;DHT22;55069;51.568;4.656;2023-01-06T00:41:46;10.75;87.93
68257;DHT22;55069;51.568;4.656;2023-01-06T00:44:32;10.80;87.80
68257;DHT22;55069;51.568;4.656;2023-01-06T00:46:58;10.82;87.66
68257;DHT22;55069;51.568;4.656;2023-01-06T00:49:24;10.84;87.34
68257;DHT22;55069;51.568;4.656;2023-01-06T00:51:50;10.86;87.03
68257;DHT22;55069;51.568;4.656;2023-01-06T00:54:16;10.84;87.09
68257;DHT22;55069;51.568;4.656;2023-01-06T00:56:44;10.88;87.08
68257;DHT22;55069;51.568;4.656;2023-01-06T00:59:12;10.86;87.23
68257;DHT22;55069;51.568;4.656;2023-01-06T01:01:38;10.89;86.86
68257;DHT22;55069;51.568;4.656;2023-01-06T01:04:04;10.84;87.34
68257;DHT22;55069;51.568;4.656;2023-01-06T01:06:30;10.90;86.61
68257;DHT22;55069;51.568;4.656;2023-01-06T01:08:57;10.93;86.85
68257;DHT22;55069;51.568;4.656;2023-01-06T01:11:23;10.89;86.89
68257;DHT22;55069;51.568;4.656;2023-01-06T01:14:09;10.90;86.90
68257;DHT22;55069;51.568;4.656;2023-01-06T01:16:35;10.83;87.11
68257;DHT22;55069;51.568;4.656;2023-01-06T01:19:00;10.84;86.89
68257;DHT22;55069;51.568;4.656;2023-01-06T01:21:28;10.79;87.20
68257;DHT22;55069;51.568;4.656;2023-01-06T01:23:53;10.76;87.09
68257;DHT22;55069;51.568;4.656;2023-01-06T01:26:19;10.80;87.09
68257;DHT22;55069;51.568;4.656;2023-01-06T01:28:44;10.83;86.56
68257;DHT22;55069;51.568;4.656;2023-01-06T01:31:10;10.79;86.73
68257;DHT22;55069;51.568;4.656;2023-01-06T01:33:38;10.80;86.86
68257;DHT22;55069;51.568;4.656;2023-01-06T01:36:08;10.79;86.68
68257;DHT22;55069;51.568;4.656;2023-01-06T01:38:34;10.82;86.52
68257;DHT22;55069;51.568;4.656;2023-01-06T01:41:00;10.82;86.65
68257;DHT22;55069;51.568;4.656;2023-01-06T01:43:54;10.86;86.29
68257;DHT22;55069;51.568;4.656;2023-01-06T01:46:34;10.82;86.10
68257;DHT22;55069;51.568;4.656;2023-01-06T01:49:10;10.79;86.57
68257;DHT22;55069;51.568;4.656;2023-01-06T01:51:41;10.82;86.27
68257;DHT22;55069;51.568;4.656;2023-01-06T01:54:12;10.82;86.23
68257;DHT22;55069;51.568;4.656;2023-01-06T01:56:40;10.86;86.05
68257;DHT22;55069;51.568;4.656;2023-01-06T01:59:12;10.86;85.89
68257;DHT22;55069;51.568;4.656;2023-01-06T02:01:39;10.88;85.91
68257;DHT22;55069;51.568;4.656;2023-01-06T02:04:05;10.90;85.39
68257;DHT22;55069;51.568;4.656;2023-01-06T02:06:31;10.88;85.61
68257;DHT22;55069;51.568;4.656;2023-01-06T02:09:32;10.88;86.05
68257;DHT22;55069;51.568;4.656;2023-01-06T02:11:58;10.89;85.74
68257;DHT22;55069;51.568;4.656;2023-01-06T02:14:26;10.86;85.87
68257;DHT22;55069;51.568;4.656;2023-01-06T02:22:23;10.86;85.74
68257;DHT22;55069;51.568;4.656;2023-01-06T02:32:46;10.86;85.51
68257;DHT22;55069;51.568;4.656;2023-01-06T02:35:49;10.84;85.90
68257;DHT22;55069;51.568;4.656;2023-01-06T02:41:19;10.88;85.35
68257;DHT22;55069;51.568;4.656;2023-01-06T02:44:16;10.83;85.37
68257;DHT22;55069;51.568;4.656;2023-01-06T02:47:05;10.86;85.47
68257;DHT22;55069;51.568;4.656;2023-01-06T02:57:41;10.83;85.39
68257;DHT22;55069;51.568;4.656;2023-01-06T03:00:18;10.90;85.38
68257;DHT22;55069;51.568;4.656;2023-01-06T03:02:49;10.89;85.59
68257;DHT22;55069;51.568;4.656;2023-01-06T03:05:19;10.86;85.58
68257;DHT22;55069;51.568;4.656;2023-01-06T03:07:46;10.90;85.39
68257;DHT22;55069;51.568;4.656;2023-01-06T03:10:16;10.92;85.29
68257;DHT22;55069;51.568;4.656;2023-01-06T03:12:50;10.99;85.08
68257;DHT22;55069;51.568;4.656;2023-01-06T03:15:17;10.99;84.93
68257;DHT22;55069;51.568;4.656;2023-01-06T03:17:43;10.97;85.29
68257;DHT22;55069;51.568;4.656;2023-01-06T03:20:10;10.96;85.18
68257;DHT22;55069;51.568;4.656;2023-01-06T03:22:37;10.86;85.45
68257;DHT22;55069;51.568;4.656;2023-01-06T03:25:05;10.88;85.51
68257;DHT22;55069;51.568;4.656;2023-01-06T03:27:32;10.82;85.45
68257;DHT22;55069;51.568;4.656;2023-01-06T03:29:59;10.83;85.65
68257;DHT22;55069;51.568;4.656;2023-01-06T03:35:14;10.93;85.06
68257;DHT22;55069;51.568;4.656;2023-01-06T03:37:51;10.95;85.03
68257;DHT22;55069;51.568;4.656;2023-01-06T03:40:40;10.99;85.00
68257;DHT22;55069;51.568;4.656;2023-01-06T03:48:55;10.88;85.11
68257;DHT22;55069;51.568;4.656;2023-01-06T03:54:06;10.83;85.70
68257;DHT22;55069;51.568;4.656;2023-01-06T03:56:44;10.80;85.51
68257;DHT22;55069;51.568;4.656;2023-01-06T03:59:15;10.89;85.45
68257;DHT22;55069;51.568;4.656;2023-01-06T04:01:42;10.88;85.35
68257;DHT22;55069;51.568;4.656;2023-01-06T04:04:09;10.90;85.48
68257;DHT22;55069;51.568;4.656;2023-01-06T04:06:34;10.89;85.62
68257;DHT22;55069;51.568;4.656;2023-01-06T04:09:02;10.89;85.63
68257;DHT22;55069;51.568;4.656;2023-01-06T04:11:29;10.86;85.53
68257;DHT22;55069;51.568;4.656;2023-01-06T04:14:13;10.83;85.74
68257;DHT22;55069;51.568;4.656;2023-01-06T04:16:39;10.86;85.72
68257;DHT22;55069;51.568;4.656;2023-01-06T04:19:06;10.86;85.83
68257;DHT22;55069;51.568;4.656;2023-01-06T04:21:32;10.88;85.48
68257;DHT22;55069;51.568;4.656;2023-01-06T04:23:57;10.82;85.74
68257;DHT22;55069;51.568;4.656;2023-01-06T04:26:23;10.80;85.89
68257;DHT22;55069;51.568;4.656;2023-01-06T04:28:49;10.82;85.81
68257;DHT22;55069;51.568;4.656;2023-01-06T04:31:15;10.77;85.85
68257;DHT22;55069;51.568;4.656;2023-01-06T04:33:40;10.84;85.50
68257;DHT22;55069;51.568;4.656;2023-01-06T04:36:08;10.80;85.64
68257;DHT22;55069;51.568;4.656;2023-01-06T04:38:36;10.73;86.15
68257;DHT22;55069;51.568;4.656;2023-01-06T04:41:02;10.76;85.90
68257;DHT22;55069;51.568;4.656;2023-01-06T04:43:27;10.72;86.19
68257;DHT22;55069;51.568;4.656;2023-01-06T04:45:53;10.77;85.68
68257;DHT22;55069;51.568;4.656;2023-01-06T04:48:18;10.84;85.44
68257;DHT22;55069;51.568;4.656;2023-01-06T04:50:43;10.84;85.26
68257;DHT22;55069;51.568;4.656;2023-01-06T04:53:11;10.82;85.33
68257;DHT22;55069;51.568;4.656;2023-01-06T04:55:37;10.82;85.34
68257;DHT22;55069;51.568;4.656;2023-01-06T04:58:03;10.79;85.85
68257;DHT22;55069;51.568;4.656;2023-01-06T05:00:29;10.82;85.54
68257;DHT22;55069;51.568;4.656;2023-01-06T05:02:54;10.83;85.23
68257;DHT22;55069;51.568;4.656;2023-01-06T05:05:20;10.90;85.55
68257;DHT22;55069;51.568;4.656;2023-01-06T05:07:45;10.88;85.02
68257;DHT22;55069;51.568;4.656;2023-01-06T05:10:11;10.92;84.91
68257;DHT22;55069;51.568;4.656;2023-01-06T05:12:36;10.89;85.03
68257;DHT22;55069;51.568;4.656;2023-01-06T05:15:02;10.95;84.69
68257;DHT22;55069;51.568;4.656;2023-01-06T05:17:28;10.93;84.81
68257;DHT22;55069;51.568;4.656;2023-01-06T05:19:53;10.97;84.83
68257;DHT22;55069;51.568;4.656;2023-01-06T05:22:19;11.01;84.54
68257;DHT22;55069;51.568;4.656;2023-01-06T05:24:45;11.04;84.78
68257;DHT22;55069;51.568;4.656;2023-01-06T05:27:10;11.03;85.20
68257;DHT22;55069;51.568;4.656;2023-01-06T05:29:36;11.01;85.22
68257;DHT22;55069;51.568;4.656;2023-01-06T05:32:02;10.96;86.15
68257;DHT22;55069;51.568;4.656;2023-01-06T05:34:28;10.93;86.09
68257;DHT22;55069;51.568;4.656;2023-01-06T05:36:55;10.88;86.67
68257;DHT22;55069;51.568;4.656;2023-01-06T05:39:21;10.86;86.66
68257;DHT22;55069;51.568;4.656;2023-01-06T05:41:46;10.86;86.52
68257;DHT22;55069;51.568;4.656;2023-01-06T05:44:12;10.84;86.87
68257;DHT22;55069;51.568;4.656;2023-01-06T05:46:37;10.84;86.79
68257;DHT22;55069;51.568;4.656;2023-01-06T05:49:03;10.83;86.83
68257;DHT22;55069;51.568;4.656;2023-01-06T05:51:28;10.82;86.95
68257;DHT22;55069;51.568;4.656;2023-01-06T05:53:54;10.83;86.87
68257;DHT22;55069;51.568;4.656;2023-01-06T05:56:21;10.86;86.49
68257;DHT22;55069;51.568;4.656;2023-01-06T05:58:48;10.88;86.57
68257;DHT22;55069;51.568;4.656;2023-01-06T06:01:23;10.88;86.85
68257;DHT22;55069;51.568;4.656;2023-01-06T06:03:49;10.95;86.24
68257;DHT22;55069;51.568;4.656;2023-01-06T06:06:15;10.93;86.68
68257;DHT22;55069;51.568;4.656;2023-01-06T06:08:41;10.95;86.84
68257;DHT22;55069;51.568;4.656;2023-01-06T06:11:09;10.96;87.19
68257;DHT22;55069;51.568;4.656;2023-01-06T06:13:35;10.90;87.15
68257;DHT22;55069;51.568;4.656;2023-01-06T06:16:06;10.88;87.52
68257;DHT22;55069;51.568;4.656;2023-01-06T06:18:32;10.84;87.94
68257;DHT22;55069;51.568;4.656;2023-01-06T06:21:01;10.86;88.19
68257;DHT22;55069;51.568;4.656;2023-01-06T06:23:28;10.79;88.53
68257;DHT22;55069;51.568;4.656;2023-01-06T06:25:54;10.76;88.78
68257;DHT22;55069;51.568;4.656;2023-01-06T06:28:19;10.79;88.78
68257;DHT22;55069;51.568;4.656;2023-01-06T06:30:44;10.79;88.64
68257;DHT22;55069;51.568;4.656;2023-01-06T06:33:10;10.83;88.35
68257;DHT22;55069;51.568;4.656;2023-01-06T06:35:35;10.86;87.99
68257;DHT22;55069;51.568;4.656;2023-01-06T06:38:01;10.93;87.89
68257;DHT22;55069;51.568;4.656;2023-01-06T06:40:27;10.93;88.22
68257;DHT22;55069;51.568;4.656;2023-01-06T06:42:52;10.83;89.08
68257;DHT22;55069;51.568;4.656;2023-01-06T06:45:18;10.83;89.49
68257;DHT22;55069;51.568;4.656;2023-01-06T06:47:43;10.77;89.84
68257;DHT22;55069;51.568;4.656;2023-01-06T06:50:10;10.73;90.18
68257;DHT22;55069;51.568;4.656;2023-01-06T06:52:36;10.72;90.17
68257;DHT22;55069;51.568;4.656;2023-01-06T06:55:02;10.69;90.42
68257;DHT22;55069;51.568;4.656;2023-01-06T06:57:27;10.66;90.53
68257;DHT22;55069;51.568;4.656;2023-01-06T06:59:53;10.71;90.37
68257;DHT22;55069;51.568;4.656;2023-01-06T07:02:18;10.66;90.53
68257;DHT22;55069;51.568;4.656;2023-01-06T07:04:44;10.69;90.34
68257;DHT22;55069;51.568;4.656;2023-01-06T07:07:09;10.68;90.18
68257;DHT22;55069;51.568;4.656;2023-01-06T07:09:35;10.75;90.12
68257;DHT22;55069;51.568;4.656;2023-01-06T07:12:01;10.76;89.87
68257;DHT22;55069;51.568;4.656;2023-01-06T07:14:27;10.80;89.74
68257;DHT22;55069;51.568;4.656;2023-01-06T07:16:52;10.84;89.56
68257;DHT22;55069;51.568;4.656;2023-01-06T07:19:18;10.89;89.45
68257;DHT22;55069;51.568;4.656;2023-01-06T07:21:43;10.84;89.85
68257;DHT22;55069;51.568;4.656;2023-01-06T07:24:09;10.83;89.92
68257;DHT22;55069;51.568;4.656;2023-01-06T07:26:34;10.83;89.86
68257;DHT22;55069;51.568;4.656;2023-01-06T07:29:00;10.86;89.44
68257;DHT22;55069;51.568;4.656;2023-01-06T07:31:25;10.93;89.10
68257;DHT22;55069;51.568;4.656;2023-01-06T07:33:51;10.95;88.84
68257;DHT22;55069;51.568;4.656;2023-01-06T07:36:17;10.97;88.67
68257;DHT22;55069;51.568;4.656;2023-01-06T07:38:42;10.96;89.17
68257;DHT22;55069;51.568;4.656;2023-01-06T07:41:08;10.97;88.94
68257;DHT22;55069;51.568;4.656;2023-01-06T07:43:33;10.95;88.87
68257;DHT22;55069;51.568;4.656;2023-01-06T07:45:59;10.95;88.72
68257;DHT22;55069;51.568;4.656;2023-01-06T07:48:25;10.93;88.90
68257;DHT22;55069;51.568;4.656;2023-01-06T07:50:50;10.95;88.66
68257;DHT22;55069;51.568;4.656;2023-01-06T07:53:16;10.93;88.79
68257;DHT22;55069;51.568;4.656;2023-01-06T07:55:41;10.95;88.77
68257;DHT22;55069;51.568;4.656;2023-01-06T07:58:08;10.95;88.74
68257;DHT22;55069;51.568;4.656;2023-01-06T08:00:35;10.84;88.94
68257;DHT22;55069;51.568;4.656;2023-01-06T08:03:05;10.89;88.70
68257;DHT22;55069;51.568;4.656;2023-01-06T08:05:31;10.95;88.80
68257;DHT22;55069;51.568;4.656;2023-01-06T08:07:56;10.93;88.48
68257;DHT22;55069;51.568;4.656;2023-01-06T08:10:22;10.90;88.79
68257;DHT22;55069;51.568;4.656;2023-01-06T08:12:47;10.88;88.97
68257;DHT22;55069;51.568;4.656;2023-01-06T08:15:13;10.90;88.85
68257;DHT22;55069;51.568;4.656;2023-01-06T08:17:38;10.86;88.99
68257;DHT22;55069;51.568;4.656;2023-01-06T08:20:04;10.86;89.09
68257;DHT22;55069;51.568;4.656;2023-01-06T08:22:30;10.92;89.21
68257;DHT22;55069;51.568;4.656;2023-01-06T08:24:55;10.90;88.95
68257;DHT22;55069;51.568;4.656;2023-01-06T08:27:21;10.97;88.66
68257;DHT22;55069;51.568;4.656;2023-01-06T08:29:46;11.06;88.22
68257;DHT22;55069;51.568;4.656;2023-01-06T08:32:14;11.10;88.26
68257;DHT22;55069;51.568;4.656;2023-01-06T08:34:40;11.20;88.28
68257;DHT22;55069;51.568;4.656;2023-01-06T08:37:05;11.18;87.92
68257;DHT22;55069;51.568;4.656;2023-01-06T08:39:31;11.28;87.79
68257;DHT22;55069;51.568;4.656;2023-01-06T08:41:56;11.16;87.56
68257;DHT22;55069;51.568;4.656;2023-01-06T08:44:22;11.13;87.98
68257;DHT22;55069;51.568;4.656;2023-01-06T08:46:47;11.10;88.44
68257;DHT22;55069;51.568;4.656;2023-01-06T08:49:13;10.99;87.60
68257;DHT22;55069;51.568;4.656;2023-01-06T08:51:38;10.97;87.24
68257;DHT22;55069;51.568;4.656;2023-01-06T08:54:04;10.97;87.87
68257;DHT22;55069;51.568;4.656;2023-01-06T08:56:30;10.99;87.17
68257;DHT22;55069;51.568;4.656;2023-01-06T08:59:01;10.93;87.63
68257;DHT22;55069;51.568;4.656;2023-01-06T09:01:29;10.92;87.80
68257;DHT22;55069;51.568;4.656;2023-01-06T09:03:57;10.86;87.54
68257;DHT22;55069;51.568;4.656;2023-01-06T09:06:23;10.88;87.51
68257;DHT22;55069;51.568;4.656;2023-01-06T09:08:49;10.77;87.18
68257;DHT22;55069;51.568;4.656;2023-01-06T09:11:15;10.71;86.65
68257;DHT22;55069;51.568;4.656;2023-01-06T09:13:42;10.65;86.71
68257;DHT22;55069;51.568;4.656;2023-01-06T09:16:09;10.53;87.11
68257;DHT22;55069;51.568;4.656;2023-01-06T09:18:35;10.53;86.75
68257;DHT22;55069;51.568;4.656;2023-01-06T09:21:01;10.52;87.12
68257;DHT22;55069;51.568;4.656;2023-01-06T09:23:27;10.44;87.43
68257;DHT22;55069;51.568;4.656;2023-01-06T09:25:56;10.44;87.79
68257;DHT22;55069;51.568;4.656;2023-01-06T09:28:22;10.45;88.12
68257;DHT22;55069;51.568;4.656;2023-01-06T09:30:48;10.45;88.45
68257;DHT22;55069;51.568;4.656;2023-01-06T09:33:14;10.51;88.67
68257;DHT22;55069;51.568;4.656;2023-01-06T09:35:42;10.53;88.89
68257;DHT22;55069;51.568;4.656;2023-01-06T09:38:07;10.52;89.02
68257;DHT22;55069;51.568;4.656;2023-01-06T09:43:25;10.65;87.93
68257;DHT22;55069;51.568;4.656;2023-01-06T09:45:57;10.71;86.64
68257;DHT22;55069;51.568;4.656;2023-01-06T09:48:36;10.80;85.95
68257;DHT22;55069;51.568;4.656;2023-01-06T09:51:05;10.76;85.81
68257;DHT22;55069;51.568;4.656;2023-01-06T09:53:38;10.63;85.96
68257;DHT22;55069;51.568;4.656;2023-01-06T09:56:09;10.62;85.68
68257;DHT22;55069;51.568;4.656;2023-01-06T10:01:23;10.61;83.80
68257;DHT22;55069;51.568;4.656;2023-01-06T10:03:51;10.55;84.14
68257;DHT22;55069;51.568;4.656;2023-01-06T10:13:57;10.46;84.14
68257;DHT22;55069;51.568;4.656;2023-01-06T10:24:34;10.42;85.96
68257;DHT22;55069;51.568;4.656;2023-01-06T10:27:26;10.55;85.88
68257;DHT22;55069;51.568;4.656;2023-01-06T10:29:54;10.69;86.03
68257;DHT22;55069;51.568;4.656;2023-01-06T10:32:20;10.75;84.83
68257;DHT22;55069;51.568;4.656;2023-01-06T10:34:48;10.89;85.10
68257;DHT22;55069;51.568;4.656;2023-01-06T10:37:37;10.96;83.95
68257;DHT22;55069;51.568;4.656;2023-01-06T10:40:15;11.06;83.77
68257;DHT22;55069;51.568;4.656;2023-01-06T10:45:34;11.35;82.09
68257;DHT22;55069;51.568;4.656;2023-01-06T10:48:03;11.44;80.71
68257;DHT22;55069;51.568;4.656;2023-01-06T10:50:32;11.57;80.78
68257;DHT22;55069;51.568;4.656;2023-01-06T10:52:58;11.54;79.00
68257;DHT22;55069;51.568;4.656;2023-01-06T10:57:50;11.62;78.68
68257;DHT22;55069;51.568;4.656;2023-01-06T11:00:22;11.64;78.34
68257;DHT22;55069;51.568;4.656;2023-01-06T11:02:53;11.72;78.25
68257;DHT22;55069;51.568;4.656;2023-01-06T11:05:24;11.72;77.06
68257;DHT22;55069;51.568;4.656;2023-01-06T11:08:09;11.71;76.09
68257;DHT22;55069;51.568;4.656;2023-01-06T11:10:50;11.74;75.99
68257;DHT22;55069;51.568;4.656;2023-01-06T11:13:31;11.81;77.04
68257;DHT22;55069;51.568;4.656;2023-01-06T11:16:02;11.68;76.76
68257;DHT22;55069;51.568;4.656;2023-01-06T11:18:30;11.68;77.54
68257;DHT22;55069;51.568;4.656;2023-01-06T11:21:14;11.74;77.59
68257;DHT22;55069;51.568;4.656;2023-01-06T11:23:45;11.76;78.00
68257;DHT22;55069;51.568;4.656;2023-01-06T11:28:41;11.71;74.14
68257;DHT22;55069;51.568;4.656;2023-01-06T11:31:15;11.82;73.78
68257;DHT22;55069;51.568;4.656;2023-01-06T11:33:56;11.83;73.00
68257;DHT22;55069;51.568;4.656;2023-01-06T11:36:24;11.92;71.20
68257;DHT22;55069;51.568;4.656;2023-01-06T11:39:11;11.93;70.92
68257;DHT22;55069;51.568;4.656;2023-01-06T11:41:39;11.93;70.13
68257;DHT22;55069;51.568;4.656;2023-01-06T11:46:39;12.09;72.23
68257;DHT22;55069;51.568;4.656;2023-01-06T11:49:12;12.14;72.70
68257;DHT22;55069;51.568;4.656;2023-01-06T11:56:57;12.17;74.43
68257;DHT22;55069;51.568;4.656;2023-01-06T11:59:24;12.20;74.56
68257;DHT22;55069;51.568;4.656;2023-01-06T12:01:54;12.19;75.10
68257;DHT22;55069;51.568;4.656;2023-01-06T12:04:45;12.34;75.07
68257;DHT22;55069;51.568;4.656;2023-01-06T12:07:26;12.33;74.64
68257;DHT22;55069;51.568;4.656;2023-01-06T12:09:58;12.38;76.00
68257;DHT22;55069;51.568;4.656;2023-01-06T12:12:26;12.48;75.63
68257;DHT22;55069;51.568;4.656;2023-01-06T12:14:53;12.58;76.07
68257;DHT22;55069;51.568;4.656;2023-01-06T12:17:37;12.67;75.26
68257;DHT22;55069;51.568;4.656;2023-01-06T12:20:09;12.65;74.82
68257;DHT22;55069;51.568;4.656;2023-01-06T12:22:46;12.64;75.29
68257;DHT22;55069;51.568;4.656;2023-01-06T12:25:26;12.65;74.69
68257;DHT22;55069;51.568;4.656;2023-01-06T12:28:14;12.41;75.18
68257;DHT22;55069;51.568;4.656;2023-01-06T12:30:47;12.48;75.05
68257;DHT22;55069;51.568;4.656;2023-01-06T12:34:04;12.29;75.40
68257;DHT22;55069;51.568;4.656;2023-01-06T12:36:44;12.27;75.83
68257;DHT22;55069;51.568;4.656;2023-01-06T12:39:24;12.09;76.50
68257;DHT22;55069;51.568;4.656;2023-01-06T12:45:03;12.12;77.02
68257;DHT22;55069;51.568;4.656;2023-01-06T12:47:47;12.29;75.76
68257;DHT22;55069;51.568;4.656;2023-01-06T12:52:54;12.19;74.86
68257;DHT22;55069;51.568;4.656;2023-01-06T12:55:35;12.26;75.50
68257;DHT22;55069;51.568;4.656;2023-01-06T13:00:55;12.44;72.99
68257;DHT22;55069;51.568;4.656;2023-01-06T13:03:51;12.43;73.97
68257;DHT22;55069;51.568;4.656;2023-01-06T13:06:48;12.45;74.28
68257;DHT22;55069;51.568;4.656;2023-01-06T13:19:59;12.23;76.49
68257;DHT22;55069;51.568;4.656;2023-01-06T13:31:21;12.13;77.50
68257;DHT22;55069;51.568;4.656;2023-01-06T13:36:49;12.14;77.32
68257;DHT22;55069;51.568;4.656;2023-01-06T13:39:24;12.12;78.11
68257;DHT22;55069;51.568;4.656;2023-01-06T13:41:53;12.17;77.98
68257;DHT22;55069;51.568;4.656;2023-01-06T13:44:22;12.16;78.12
68257;DHT22;55069;51.568;4.656;2023-01-06T13:46:51;12.07;78.87
68257;DHT22;55069;51.568;4.656;2023-01-06T13:49:18;12.13;78.93
68257;DHT22;55069;51.568;4.656;2023-01-06T13:51:43;12.13;79.25
68257;DHT22;55069;51.568;4.656;2023-01-06T14:08:13;11.93;80.09
68257;DHT22;55069;51.568;4.656;2023-01-06T14:10:42;11.93;78.85
68257;DHT22;55069;51.568;4.656;2023-01-06T14:15:57;11.81;78.00
68257;DHT22;55069;51.568;4.656;2023-01-06T14:18:29;11.72;78.56
68257;DHT22;55069;51.568;4.656;2023-01-06T14:21:05;11.65;79.04
68257;DHT22;55069;51.568;4.656;2023-01-06T14:23:32;11.61;79.34
68257;DHT22;55069;51.568;4.656;2023-01-06T14:25:58;11.52;79.31
68257;DHT22;55069;51.568;4.656;2023-01-06T14:28:32;11.47;78.78
68257;DHT22;55069;51.568;4.656;2023-01-06T14:33:55;11.61;79.60
68257;DHT22;55069;51.568;4.656;2023-01-06T14:36:22;11.61;79.53
68257;DHT22;55069;51.568;4.656;2023-01-06T14:38:51;11.64;79.78
68257;DHT22;55069;51.568;4.656;2023-01-06T14:41:26;11.57;79.71
68257;DHT22;55069;51.568;4.656;2023-01-06T14:43:58;11.50;79.98
68257;DHT22;55069;51.568;4.656;2023-01-06T14:46:32;11.41;81.06
68257;DHT22;55069;51.568;4.656;2023-01-06T14:49:05;11.28;81.24
68257;DHT22;55069;51.568;4.656;2023-01-06T14:51:32;11.24;81.52
68257;DHT22;55069;51.568;4.656;2023-01-06T14:56:51;11.23;81.96
68257;DHT22;55069;51.568;4.656;2023-01-06T14:59:17;11.18;82.21
68257;DHT22;55069;51.568;4.656;2023-01-06T15:01:53;11.21;82.09
68257;DHT22;55069;51.568;4.656;2023-01-06T15:04:27;11.26;82.16
68257;DHT22;55069;51.568;4.656;2023-01-06T15:06:58;11.26;82.53
68257;DHT22;55069;51.568;4.656;2023-01-06T15:09:24;11.28;81.74
68257;DHT22;55069;51.568;4.656;2023-01-06T15:11:50;11.26;82.56
68257;DHT22;55069;51.568;4.656;2023-01-06T15:14:31;11.17;82.95
68257;DHT22;55069;51.568;4.656;2023-01-06T15:17:00;11.13;83.12
68257;DHT22;55069;51.568;4.656;2023-01-06T15:19:26;11.09;83.54
68257;DHT22;55069;51.568;4.656;2023-01-06T15:21:52;11.07;83.95
68257;DHT22;55069;51.568;4.656;2023-01-06T15:24:24;11.04;83.91
68257;DHT22;55069;51.568;4.656;2023-01-06T15:26:51;11.03;84.13
68257;DHT22;55069;51.568;4.656;2023-01-06T15:29:20;11.10;84.26
68257;DHT22;55069;51.568;4.656;2023-01-06T15:31:47;11.09;85.15
68257;DHT22;55069;51.568;4.656;2023-01-06T15:36:53;11.01;85.21
68257;DHT22;55069;51.568;4.656;2023-01-06T15:39:30;11.10;85.44
68257;DHT22;55069;51.568;4.656;2023-01-06T15:41:57;11.03;85.10
68257;DHT22;55069;51.568;4.656;2023-01-06T15:44:35;11.00;85.14
68257;DHT22;55069;51.568;4.656;2023-01-06T15:49:51;10.95;85.64
68257;DHT22;55069;51.568;4.656;2023-01-06T15:55:29;10.89;86.13
68257;DHT22;55069;51.568;4.656;2023-01-06T15:58:00;10.84;86.39
68257;DHT22;55069;51.568;4.656;2023-01-06T16:00:42;10.86;86.42
68257;DHT22;55069;51.568;4.656;2023-01-06T16:03:23;10.92;86.18
68257;DHT22;55069;51.568;4.656;2023-01-06T16:05:49;10.92;86.26
68257;DHT22;55069;51.568;4.656;2023-01-06T16:08:26;10.95;86.16
68257;DHT22;55069;51.568;4.656;2023-01-06T16:14:03;11.01;86.86
68257;DHT22;55069;51.568;4.656;2023-01-06T16:16:37;11.07;86.44
68257;DHT22;55069;51.568;4.656;2023-01-06T16:19:14;11.04;86.69
68257;DHT22;55069;51.568;4.656;2023-01-06T16:21:41;10.99;87.02
68257;DHT22;55069;51.568;4.656;2023-01-06T16:24:18;10.93;87.36
68257;DHT22;55069;51.568;4.656;2023-01-06T16:26:54;10.90;87.59
68257;DHT22;55069;51.568;4.656;2023-01-06T16:31:55;10.99;87.77
68257;DHT22;55069;51.568;4.656;2023-01-06T16:36:47;11.06;87.90
68257;DHT22;55069;51.568;4.656;2023-01-06T16:39:13;11.10;87.96
68257;DHT22;55069;51.568;4.656;2023-01-06T16:46:50;11.16;88.14
68257;DHT22;55069;51.568;4.656;2023-01-06T16:49:16;11.21;88.05
68257;DHT22;55069;51.568;4.656;2023-01-06T16:51:43;11.14;88.46
68257;DHT22;55069;51.568;4.656;2023-01-06T16:54:09;11.07;88.80
68257;DHT22;55069;51.568;4.656;2023-01-06T16:56:36;11.06;88.98
68257;DHT22;55069;51.568;4.656;2023-01-06T16:59:14;11.09;88.99
68257;DHT22;55069;51.568;4.656;2023-01-06T17:01:41;11.10;88.95
68257;DHT22;55069;51.568;4.656;2023-01-06T17:04:08;11.13;89.03
68257;DHT22;55069;51.568;4.656;2023-01-06T17:06:36;11.13;89.16
68257;DHT22;55069;51.568;4.656;2023-01-06T17:09:17;11.17;89.19
68257;DHT22;55069;51.568;4.656;2023-01-06T17:11:43;11.14;89.30
68257;DHT22;55069;51.568;4.656;2023-01-06T17:14:13;11.17;89.36
68257;DHT22;55069;51.568;4.656;2023-01-06T17:16:40;11.18;89.48
68257;DHT22;55069;51.568;4.656;2023-01-06T17:19:27;11.26;89.51
68257;DHT22;55069;51.568;4.656;2023-01-06T17:22:23;11.26;89.60
68257;DHT22;55069;51.568;4.656;2023-01-06T17:24:50;11.27;89.58
68257;DHT22;55069;51.568;4.656;2023-01-06T17:27:22;11.32;89.56
68257;DHT22;55069;51.568;4.656;2023-01-06T17:29:50;11.37;89.59
68257;DHT22;55069;51.568;4.656;2023-01-06T17:34:56;11.44;89.86
68257;DHT22;55069;51.568;4.656;2023-01-06T17:37:24;11.39;90.20
68257;DHT22;55069;51.568;4.656;2023-01-06T17:39:50;11.41;90.57
68257;DHT22;55069;51.568;4.656;2023-01-06T17:44:46;11.42;90.73
68257;DHT22;55069;51.568;4.656;2023-01-06T17:49:50;11.37;91.02
68257;DHT22;55069;51.568;4.656;2023-01-06T17:52:18;11.38;91.18
68257;DHT22;55069;51.568;4.656;2023-01-06T17:54:53;11.35;91.23
68257;DHT22;55069;51.568;4.656;2023-01-06T17:57:39;11.31;91.48
68257;DHT22;55069;51.568;4.656;2023-01-06T18:00:33;11.32;91.38
68257;DHT22;55069;51.568;4.656;2023-01-06T18:03:04;11.31;91.52
68257;DHT22;55069;51.568;4.656;2023-01-06T18:10:35;11.28;92.01
68257;DHT22;55069;51.568;4.656;2023-01-06T18:15:50;11.27;92.26
68257;DHT22;55069;51.568;4.656;2023-01-06T18:18:27;11.23;92.55
68257;DHT22;55069;51.568;4.656;2023-01-06T18:20:55;11.28;92.56
68257;DHT22;55069;51.568;4.656;2023-01-06T18:23:23;11.28;92.62
68257;DHT22;55069;51.568;4.656;2023-01-06T18:25:55;11.30;92.74
68257;DHT22;55069;51.568;4.656;2023-01-06T18:28:21;11.27;92.87